Caen, France
Current Conditions -  °F | °C
As of 9:00 PM on Sunday 23 Nov 2014 (Local Time) from LFRK Reporting Station
Drizzle Drizzle  
Wind Chill: 50°   Ceiling: 1500
Heat Index: 50°   Visibility: 6mi
Dew Point: 48°   Wind: 9mph
Humidity: 94%   Direction: 360°N
Pressure: 30.09"   Gusts: NA
Location:  49.18°N, 0.36°W
Report Text: LFRK 232000Z AUTO 36008KT 9999 -DZ SCT007 BKN015 BKN03610/09 Q1019
Loading
Personal Weather Stations






























Interactive Weather Map New forecast layout! Learn more

10-Day Weather Forecast

Advertisements
Track Severe Weather on mobile